Time;durP1;ratioP1;P1;durP2;ratioP2;P2;SDS_P1;SDS_P2;PMS_P1;PMS_P2;Temp;Humidity;BMP_temperature;BMP_pressure;BME280_temperature;BME280_humidity;BME280_pressure;Samples;Min_cycle;Max_cycle;Signal;HPM_P1;HPM_P2
2023/10/14 00:00:47;;;;;;;7.57;2.00;;;;;;;13.38;100.00;100085.13;5034542;28;20022;-69
2023/10/14 00:03:27;;;;;;;6.43;1.90;;;;;;;13.36;100.00;100086.94;5033564;28;20041;-68
2023/10/14 00:05:54;;;;;;;4.05;1.55;;;;;;;13.30;100.00;100100.31;5034076;28;20030;-68
2023/10/14 00:08:20;;;;;;;6.85;1.83;;;;;;;13.19;100.00;100127.94;5033405;28;20493;-68
2023/10/14 00:10:46;;;;;;;10.38;1.70;;;;;;;13.23;100.00;100142.00;5034185;28;20108;-68
2023/10/14 00:13:16;;;;;;;4.97;1.60;;;;;;;13.05;100.00;100114.88;5034195;28;20056;-68
2023/10/14 00:15:41;;;;;;;3.90;1.67;;;;;;;13.01;100.00;100117.63;5034160;28;20079;-68
2023/10/14 00:18:09;;;;;;;6.38;1.70;;;;;;;12.95;100.00;100117.75;5034055;28;20116;-68
2023/10/14 00:20:35;;;;;;;5.85;1.70;;;;;;;12.95;100.00;100108.00;5033916;28;20037;-68
2023/10/14 00:23:04;;;;;;;7.78;1.70;;;;;;;12.94;100.00;100131.88;5034068;28;20025;-68
2023/10/14 00:25:32;;;;;;;5.72;1.80;;;;;;;12.91;100.00;100133.66;5034311;28;20040;-68
2023/10/14 00:27:58;;;;;;;6.97;1.90;;;;;;;12.85;100.00;100119.66;5033996;28;20033;-68
2023/10/14 00:30:27;;;;;;;4.93;1.60;;;;;;;12.80;100.00;100119.75;5033976;28;20032;-68
2023/10/14 00:32:52;;;;;;;7.28;1.70;;;;;;;12.79;100.00;100130.38;5034038;28;20373;-68
2023/10/14 00:35:19;;;;;;;6.00;1.85;;;;;;;12.76;100.00;100149.00;5033509;28;20043;-68
2023/10/14 00:37:45;;;;;;;6.60;1.90;;;;;;;12.71;100.00;100181.75;5033641;28;20105;-68
2023/10/14 00:40:11;;;;;;;5.38;2.00;;;;;;;12.69;100.00;100183.53;5033654;28;20104;-68
2023/10/14 00:42:37;;;;;;;5.28;1.90;;;;;;;12.67;100.00;100190.66;5033776;28;20372;-68
2023/10/14 00:45:09;;;;;;;6.55;1.98;;;;;;;12.71;100.00;100181.75;5033616;28;20021;-66
2023/10/14 00:47:40;;;;;;;4.25;1.75;;;;;;;12.63;100.00;100191.59;5033594;28;20029;-66
2023/10/14 00:50:22;;;;;;;6.68;1.95;;;;;;;12.66;100.00;100193.31;5033645;28;20032;-66
2023/10/14 00:52:53;;;;;;;9.60;2.40;;;;;;;12.70;100.00;100179.13;5048733;28;20033;-66
2023/10/14 00:55:24;;;;;;;10.83;2.57;;;;;;;12.67;100.00;100181.81;5033349;28;20040;-67
2023/10/14 00:57:54;;;;;;;7.55;2.70;;;;;;;12.76;100.00;100186.97;5033362;28;20298;-66
2023/10/14 01:00:26;;;;;;;13.13;3.40;;;;;;;12.73;100.00;100185.25;5033437;28;20044;-67
2023/10/14 01:02:52;;;;;;;15.05;3.70;;;;;;;12.75;100.00;100193.19;5033214;28;20029;-67
2023/10/14 01:05:20;;;;;;;16.55;4.30;;;;;;;12.70;100.00;100201.22;5033318;28;20022;-66
2023/10/14 01:07:47;;;;;;;15.90;4.43;;;;;;;12.75;100.00;100194.97;5033312;28;20030;-67
2023/10/14 01:10:23;;;;;;;15.75;4.70;;;;;;;12.76;100.00;100202.91;5033128;28;20061;-67
2023/10/14 01:12:54;;;;;;;15.20;4.68;;;;;;;12.79;100.00;100228.50;5033045;28;20033;-66
2023/10/14 01:15:22;;;;;;;12.98;3.40;;;;;;;12.75;100.00;100246.22;5032771;28;20026;-67
2023/10/14 01:17:49;;;;;;;11.65;2.70;;;;;;;12.48;100.00;100234.19;5033112;28;20025;-67
2023/10/14 01:22:45;;;;;;;11.82;2.40;;;;;;;12.26;100.00;100245.09;5033335;28;20053;-66
2023/10/14 01:25:13;;;;;;;12.88;2.60;;;;;;;12.10;100.00;100249.69;5033132;28;20104;-66
2023/10/14 01:27:42;;;;;;;13.35;2.35;;;;;;;12.10;100.00;100254.09;5032791;28;20037;-66
2023/10/14 01:30:11;;;;;;;12.43;2.40;;;;;;;12.00;100.00;100263.94;5032771;28;20040;-66
2023/10/14 01:35:51;;;;;;;13.23;2.40;;;;;;;12.03;100.00;100293.91;5032675;28;20038;-67
2023/10/14 01:37:52;;;;;;;12.65;2.75;;;;;;;11.98;100.00;100286.91;5028809;28;20488;-66
2023/10/14 01:40:34;;;;;;;12.60;2.50;;;;;;;11.89;100.00;100295.78;5032682;28;20037;-67
2023/10/14 01:43:08;;;;;;;15.52;2.60;;;;;;;11.96;100.00;100307.25;5031447;28;20052;-66
2023/10/14 01:45:47;;;;;;;16.02;2.70;;;;;;;11.92;100.00;100308.13;5033063;28;20034;-66
2023/10/14 01:48:13;;;;;;;17.50;3.05;;;;;;;11.91;100.00;100312.56;5032855;28;20377;-66
2023/10/14 01:50:45;;;;;;;17.77;3.03;;;;;;;11.94;100.00;100327.56;5031340;28;20030;-66
2023/10/14 01:53:17;;;;;;;15.80;2.80;;;;;;;12.05;100.00;100333.63;5032818;28;20104;-67
2023/10/14 01:55:44;;;;;;;18.85;3.20;;;;;;;11.93;100.00;100342.59;5032941;28;20416;-66
2023/10/14 01:58:21;;;;;;;17.90;3.08;;;;;;;11.85;100.00;100350.56;5032251;28;20041;-67
2023/10/14 02:00:52;;;;;;;16.23;2.90;;;;;;;11.86;100.00;100356.72;5032498;28;20480;-66
2023/10/14 02:03:20;;;;;;;21.55;3.15;;;;;;;11.74;100.00;100367.44;5032476;28;20064;-67
2023/10/14 02:05:45;;;;;;;17.70;3.30;;;;;;;11.72;100.00;100370.06;5032487;28;20064;-67
2023/10/14 02:08:14;;;;;;;19.65;3.55;;;;;;;11.68;100.00;100381.59;5032794;28;20025;-66
2023/10/14 02:10:54;;;;;;;16.77;3.10;;;;;;;11.67;100.00;100385.13;5032387;28;20033;-66
2023/10/14 02:13:22;;;;;;;18.90;3.47;;;;;;;11.61;100.00;100393.13;5032619;28;20033;-66
2023/10/14 02:15:50;;;;;;;19.17;3.10;;;;;;;11.63;100.00;100393.97;5032671;28;20064;-66
2023/10/14 02:18:23;;;;;;;17.17;3.00;;;;;;;11.69;100.00;100404.53;5032740;28;20053;-66
2023/10/14 02:21:04;;;;;;;17.52;2.88;;;;;;;11.63;100.00;100412.50;5032268;28;20029;-66
2023/10/14 02:23:43;;;;;;;16.55;3.08;;;;;;;11.56;100.00;100410.78;5028960;28;20057;-66
2023/10/14 02:26:24;;;;;;;18.38;3.20;;;;;;;11.60;100.00;100418.69;5032229;28;20488;-66
2023/10/14 02:28:54;;;;;;;18.75;3.20;;;;;;;11.57;100.00;100423.16;5035798;28;20029;-66
2023/10/14 02:33:54;;;;;;;20.38;3.63;;;;;;;11.52;100.00;100442.59;5036543;28;20483;-65
2023/10/14 02:36:28;;;;;;;16.88;3.25;;;;;;;11.43;100.00;100447.94;5036117;28;20380;-66
2023/10/14 02:38:53;;;;;;;16.05;3.00;;;;;;;11.44;100.00;100457.63;5035833;28;20491;-66
2023/10/14 02:41:20;;;;;;;18.05;3.50;;;;;;;11.29;100.00;100465.66;5036267;28;20030;-66
2023/10/14 02:43:49;;;;;;;18.33;3.50;;;;;;;11.32;100.00;100476.22;5035766;28;20091;-65
2023/10/14 02:46:25;;;;;;;17.85;3.15;;;;;;;11.46;100.00;100478.78;5035779;28;20092;-66
2023/10/14 02:48:54;;;;;;;19.75;3.10;;;;;;;11.36;100.00;100474.41;5035754;28;20029;-65
2023/10/14 02:54:15;;;;;;;18.30;2.90;;;;;;;11.19;100.00;100493.03;5033398;28;20508;-65
2023/10/14 02:57:29;;;;;;;19.35;2.97;;;;;;;11.13;100.00;100497.44;5035599;28;20030;-66
2023/10/14 03:07:30;;;;;;;17.67;3.20;;;;;;;10.57;100.00;100528.44;5035705;28;20037;-67
2023/10/14 03:12:40;;;;;;;19.75;3.40;;;;;;;10.44;100.00;100540.75;5032919;28;20030;-68
2023/10/14 03:15:19;;;;;;;18.88;3.22;;;;;;;10.34;100.00;100544.28;5035446;28;20040;-68
2023/10/14 03:18:04;;;;;;;18.63;3.38;;;;;;;10.22;100.00;100542.50;5035215;28;20029;-68
2023/10/14 03:20:34;;;;;;;18.75;3.33;;;;;;;10.22;100.00;100568.00;5026417;28;20036;-68
2023/10/14 03:23:17;;;;;;;18.80;3.25;;;;;;;10.10;100.00;100558.31;5035133;28;20021;-68
2023/10/14 03:25:44;;;;;;;18.05;3.20;;;;;;;9.95;100.00;100567.09;5035246;28;20384;-68
2023/10/14 03:30:46;;;;;;;19.80;3.20;;;;;;;9.88;100.00;100584.66;5035232;28;20034;-68
2023/10/14 03:33:20;;;;;;;19.95;3.50;;;;;;;9.82;100.00;100592.56;5034908;28;20034;-68
2023/10/14 03:36:28;;;;;;;20.83;3.50;;;;;;;9.80;100.00;100591.69;5034808;28;20029;-68
2023/10/14 03:38:54;;;;;;;22.77;3.30;;;;;;;9.69;100.00;100601.31;5031491;28;20033;-68
2023/10/14 03:41:21;;;;;;;20.27;3.40;;;;;;;9.62;100.00;100607.44;5034733;28;20034;-68
2023/10/14 03:43:58;;;;;;;20.70;3.60;;;;;;;9.58;100.00;100620.63;5033758;28;20061;-67
2023/10/14 03:46:32;;;;;;;21.75;3.78;;;;;;;9.50;100.00;100629.38;5034773;28;20041;-65
2023/10/14 03:49:02;;;;;;;19.85;3.60;;;;;;;9.52;100.00;100636.44;5030724;28;20033;-65
2023/10/14 03:51:31;;;;;;;20.40;4.03;;;;;;;9.50;100.00;100642.56;5031082;28;20450;-65
2023/10/14 03:53:58;;;;;;;24.38;4.10;;;;;;;9.55;100.00;100636.44;5030716;28;20042;-66
2023/10/14 03:56:25;;;;;;;22.27;3.50;;;;;;;9.52;100.00;100643.44;5034484;28;20037;-65
2023/10/14 03:58:58;;;;;;;21.30;3.70;;;;;;;9.53;100.00;100650.50;5034305;28;20492;-65
2023/10/14 04:01:43;;;;;;;18.90;3.50;;;;;;;9.45;100.00;100654.84;5034382;28;20473;-65
2023/10/14 04:04:18;;;;;;;19.00;3.30;;;;;;;9.41;100.00;100656.59;5031813;28;20087;-65
2023/10/14 04:06:55;;;;;;;20.27;3.88;;;;;;;9.38;100.00;100665.38;5034733;28;20079;-65
2023/10/14 04:09:24;;;;;;;20.70;3.88;;;;;;;9.31;100.00;100670.59;5034630;28;20083;-66
2023/10/14 04:11:54;;;;;;;20.25;3.40;;;;;;;9.30;100.00;100672.34;5034130;28;20048;-65
2023/10/14 04:14:22;;;;;;;21.02;3.28;;;;;;;9.16;100.00;100671.34;5034037;28;20130;-65
2023/10/14 04:16:50;;;;;;;17.80;3.17;;;;;;;9.10;100.00;100680.13;5034421;28;20143;-65
2023/10/14 04:19:27;;;;;;;19.58;3.38;;;;;;;8.99;100.00;100698.47;5034547;28;20029;-65
2023/10/14 04:21:58;;;;;;;21.33;3.75;;;;;;;8.87;100.00;100701.91;5034297;28;20120;-65
2023/10/14 04:27:17;;;;;;;19.80;3.40;;;;;;;8.72;100.00;100712.28;5030970;28;20033;-65
2023/10/14 04:29:51;;;;;;;21.05;3.50;;;;;;;8.68;100.00;100721.91;5034060;28;20029;-65
2023/10/14 04:32:27;;;;;;;21.88;3.88;;;;;;;8.62;100.00;100721.88;5034070;28;20068;-65
2023/10/14 04:34:57;;;;;;;20.67;3.65;;;;;;;8.59;100.00;100729.75;5034142;28;20056;-66
2023/10/14 04:37:26;;;;;;;20.23;3.78;;;;;;;8.58;100.00;100741.13;5033702;28;20037;-65
2023/10/14 04:39:58;;;;;;;20.35;4.03;;;;;;;8.56;100.00;100742.84;5033781;28;20424;-65
2023/10/14 04:42:36;;;;;;;19.50;3.60;;;;;;;8.52;100.00;100749.88;5033760;28;20025;-65
2023/10/14 04:45:04;;;;;;;21.30;3.95;;;;;;;8.51;100.00;100755.97;5030642;28;20038;-65
2023/10/14 04:47:38;;;;;;;22.42;4.05;;;;;;;8.50;100.00;100761.25;5033536;28;20044;-65
2023/10/14 04:50:14;;;;;;;23.67;4.13;;;;;;;8.52;100.00;100772.69;5029700;28;20480;-65
2023/10/14 04:52:41;;;;;;;22.98;4.22;;;;;;;8.50;100.00;100774.41;5033441;28;20036;-65
2023/10/14 04:57:51;;;;;;;23.02;4.43;;;;;;;8.44;100.00;100783.13;5033347;28;20366;-66
2023/10/14 05:00:30;;;;;;;21.50;4.20;;;;;;;8.45;100.00;100790.16;5033271;28;20068;-67
2023/10/14 05:02:59;;;;;;;21.63;4.20;;;;;;;8.45;100.00;100792.81;5033183;28;20068;-66
2023/10/14 05:05:30;;;;;;;24.60;4.60;;;;;;;8.43;100.00;100796.25;5033186;28;20029;-66
2023/10/14 05:07:58;;;;;;;22.02;4.28;;;;;;;8.39;100.00;100800.59;5033322;28;20041;-66
2023/10/14 05:10:28;;;;;;;21.65;4.10;;;;;;;8.37;100.00;100811.13;5033087;28;20029;-66
2023/10/14 05:12:54;;;;;;;21.42;4.22;;;;;;;8.40;100.00;100814.66;5032995;28;20116;-68
2023/10/14 05:15:20;;;;;;;22.75;4.30;;;;;;;8.36;100.00;100809.34;5033064;28;20116;-66
2023/10/14 05:17:49;;;;;;;23.13;4.40;;;;;;;8.40;100.00;100817.28;5033145;28;20030;-65
2023/10/14 05:20:28;;;;;;;21.55;3.90;;;;;;;8.40;100.00;100825.19;5032951;28;20054;-66
2023/10/14 05:22:53;;;;;;;20.48;4.07;;;;;;;8.42;100.00;100839.25;5032902;28;20060;-66
2023/10/14 05:25:27;;;;;;;22.10;4.25;;;;;;;8.41;100.00;100837.50;5033050;28;20029;-66
2023/10/14 05:27:58;;;;;;;19.85;3.95;;;;;;;8.41;100.00;100846.28;5033034;28;20111;-66
2023/10/14 05:30:24;;;;;;;22.45;4.20;;;;;;;8.40;100.00;100851.53;5032798;28;20025;-66
2023/10/14 05:32:53;;;;;;;24.00;4.72;;;;;;;8.37;100.00;100842.75;5032902;28;20041;-66
2023/10/14 05:35:22;;;;;;;22.10;4.15;;;;;;;8.36;100.00;100846.22;5033071;28;20029;-66
2023/10/14 05:37:47;;;;;;;21.58;4.18;;;;;;;8.33;100.00;100853.19;5031744;28;20385;-66
2023/10/14 05:40:13;;;;;;;21.30;4.20;;;;;;;8.30;100.00;100855.78;5032766;28;20033;-67
2023/10/14 05:42:48;;;;;;;20.48;3.88;;;;;;;8.29;100.00;100864.56;5032680;28;20083;-68
2023/10/14 05:45:14;;;;;;;21.02;4.00;;;;;;;8.34;100.00;100865.50;5032545;28;20111;-67
2023/10/14 05:47:42;;;;;;;22.25;4.15;;;;;;;8.33;100.00;100869.91;5032606;28;20469;-68
2023/10/14 05:50:14;;;;;;;19.27;3.80;;;;;;;8.43;100.00;100878.81;5032849;28;20025;-68
2023/10/14 05:52:41;;;;;;;19.45;3.90;;;;;;;8.55;100.00;100881.63;5032513;28;20025;-68
2023/10/14 05:55:09;;;;;;;21.52;4.05;;;;;;;8.65;100.00;100885.28;5031346;28;20132;-67
2023/10/14 05:57:39;;;;;;;22.05;4.30;;;;;;;8.70;100.00;100883.56;5032665;28;20052;-68
2023/10/14 06:00:20;;;;;;;19.27;3.80;;;;;;;8.78;100.00;100890.69;5032741;28;20036;-67
2023/10/14 06:02:46;;;;;;;20.58;4.20;;;;;;;8.89;100.00;100900.50;5034422;28;20083;-67
2023/10/14 06:05:12;;;;;;;21.40;4.22;;;;;;;8.94;100.00;100908.50;5036483;28;20021;-68
2023/10/14 06:07:39;;;;;;;21.67;3.80;;;;;;;8.99;100.00;100905.91;5036600;28;20525;-67
2023/10/14 06:10:10;;;;;;;20.58;3.65;;;;;;;9.03;100.00;100911.22;5036712;28;20029;-68
2023/10/14 06:12:35;;;;;;;20.15;3.80;;;;;;;9.00;100.00;100911.19;5036773;28;20034;-68
2023/10/14 06:15:00;;;;;;;20.98;3.80;;;;;;;8.99;100.00;100912.06;5036752;28;20304;-68
2023/10/14 06:17:26;;;;;;;21.65;3.80;;;;;;;8.96;100.00;100922.56;5030101;28;20116;-68
2023/10/14 06:19:53;;;;;;;23.23;4.18;;;;;;;8.96;100.00;100934.88;5035994;28;20030;-68
2023/10/14 06:22:18;;;;;;;20.17;3.78;;;;;;;8.99;100.00;100932.28;5035999;28;20033;-68
2023/10/14 06:24:44;;;;;;;21.42;3.70;;;;;;;9.00;100.00;100934.94;5036317;28;20029;-67
2023/10/14 06:27:09;;;;;;;21.00;4.07;;;;;;;9.01;100.00;100938.44;5035830;28;20033;-65
2023/10/14 06:29:35;;;;;;;19.35;4.00;;;;;;;8.99;100.00;100943.69;5036176;28;20025;-65
2023/10/14 06:32:03;;;;;;;17.45;3.72;;;;;;;9.04;100.00;100952.56;5035958;28;20109;-65
2023/10/14 06:34:31;;;;;;;19.63;3.70;;;;;;;9.07;100.00;100956.97;5032097;28;20040;-65
2023/10/14 06:37:01;;;;;;;21.05;4.05;;;;;;;9.15;100.00;100962.34;5032152;28;20498;-66
2023/10/14 06:39:26;;;;;;;21.25;3.72;;;;;;;9.22;100.00;100961.56;5035880;28;20132;-66
2023/10/14 06:41:55;;;;;;;20.05;3.95;;;;;;;9.22;100.00;100961.56;5035812;28;20472;-66
2023/10/14 06:44:27;;;;;;;22.50;3.88;;;;;;;9.25;100.00;100972.16;5036012;28;20476;-65
2023/10/14 06:46:56;;;;;;;19.17;3.60;;;;;;;9.24;100.00;100970.38;5035938;28;20083;-66
2023/10/14 06:49:22;;;;;;;19.42;3.60;;;;;;;9.22;100.00;100978.25;5035661;28;20027;-65
2023/10/14 06:51:51;;;;;;;19.80;3.70;;;;;;;9.14;100.00;100981.69;5035848;28;20471;-66
2023/10/14 06:54:25;;;;;;;17.83;3.45;;;;;;;9.10;100.00;100993.94;5035755;28;20038;-66
2023/10/14 06:56:51;;;;;;;19.70;4.00;;;;;;;9.03;100.00;100994.75;5035312;28;20481;-66
2023/10/14 06:59:17;;;;;;;21.92;4.07;;;;;;;9.04;100.00;101013.22;5035461;28;20468;-65
2023/10/14 07:01:43;;;;;;;21.50;3.80;;;;;;;9.06;100.00;101011.47;5035889;28;20141;-66
2023/10/14 07:04:12;;;;;;;20.20;3.80;;;;;;;9.08;100.00;101012.38;5035502;28;20107;-69
2023/10/14 07:06:37;;;;;;;20.63;3.88;;;;;;;9.16;100.00;101024.78;5038332;28;20048;-64
2023/10/14 07:09:08;;;;;;;21.42;3.90;;;;;;;9.21;100.00;101023.09;5035285;28;20029;-68
2023/10/14 07:11:33;;;;;;;22.08;4.25;;;;;;;9.25;100.00;101027.53;5031467;28;20033;-65
2023/10/14 07:13:58;;;;;;;21.02;3.92;;;;;;;9.34;100.00;101027.66;5034488;28;20036;-64
2023/10/14 07:16:24;;;;;;;21.25;4.03;;;;;;;9.40;100.00;101026.84;5034994;28;20034;-67
2023/10/14 07:18:49;;;;;;;19.73;4.13;;;;;;;9.49;100.00;101032.22;5033452;28;20033;-65
2023/10/14 07:21:15;;;;;;;20.88;3.90;;;;;;;9.55;100.00;101036.69;5034895;28;20393;-68
2023/10/14 07:23:40;;;;;;;20.25;3.75;;;;;;;9.56;100.00;101044.63;5035103;28;20025;-69
2023/10/14 07:26:11;;;;;;;20.55;3.78;;;;;;;9.64;100.00;101047.38;5035069;28;20484;-71
2023/10/14 07:28:44;;;;;;;21.55;4.10;;;;;;;9.74;100.00;101045.69;5034650;28;20045;-68
2023/10/14 07:31:10;;;;;;;21.52;3.97;;;;;;;9.81;100.00;101054.56;5034486;28;20481;-68
2023/10/14 07:33:37;;;;;;;24.70;4.32;;;;;;;9.91;100.00;101051.16;5034784;28;20481;-68
2023/10/14 07:36:06;;;;;;;20.55;3.60;;;;;;;9.98;100.00;101055.63;5034542;28;20041;-71
2023/10/14 07:38:33;;;;;;;19.58;3.83;;;;;;;10.08;100.00;101068.06;5034565;28;20034;-70
2023/10/14 07:41:01;;;;;;;20.40;3.63;;;;;;;10.17;100.00;101063.75;5035921;28;20032;-68
2023/10/14 07:43:26;;;;;;;17.95;3.60;;;;;;;10.33;100.00;101065.66;5036108;28;20075;-70
2023/10/14 07:45:52;;;;;;;20.00;3.78;;;;;;;10.43;100.00;101061.38;5034424;28;20069;-68
2023/10/14 07:48:19;;;;;;;20.40;3.67;;;;;;;10.63;100.00;101064.19;5034604;28;20025;-69
2023/10/14 07:50:46;;;;;;;20.05;3.70;;;;;;;10.77;100.00;101070.44;5034787;28;20112;-69
2023/10/14 07:53:13;;;;;;;19.60;3.45;;;;;;;10.84;100.00;101068.72;5033980;28;20116;-69
2023/10/14 07:55:43;;;;;;;21.92;3.70;;;;;;;10.94;100.00;101067.03;5034408;28;20026;-73
2023/10/14 07:58:10;;;;;;;19.45;3.50;;;;;;;11.09;100.00;101072.41;5034087;28;20050;-68
2023/10/14 08:00:49;;;;;;;18.30;3.22;;;;;;;11.19;100.00;101072.47;5034167;28;20029;-68
2023/10/14 08:03:16;;;;;;;18.60;3.55;;;;;;;11.42;100.00;101068.19;5033986;28;20029;-69
2023/10/14 08:05:44;;;;;;;18.35;3.40;;;;;;;11.45;100.00;101080.53;5034340;28;20033;-72
2023/10/14 08:08:10;;;;;;;21.00;3.20;;;;;;;11.58;100.00;101079.72;5034233;28;20033;-65
2023/10/14 08:10:43;;;;;;;21.35;3.70;;;;;;;11.78;100.00;101085.09;5034150;28;20030;-66
2023/10/14 08:13:09;;;;;;;17.85;3.47;;;;;;;11.98;100.00;101092.22;5034433;28;20025;-66
2023/10/14 08:15:35;;;;;;;20.58;3.55;;;;;;;12.24;100.00;101081.69;5033559;28;20034;-66
2023/10/14 08:18:04;;;;;;;19.63;3.55;;;;;;;12.20;100.00;101082.53;5033883;28;20039;-65
2023/10/14 08:20:31;;;;;;;18.15;3.20;;;;;;;12.44;100.00;101099.38;5030429;28;20033;-66
2023/10/14 08:22:57;;;;;;;19.60;3.47;;;;;;;12.56;100.00;101102.91;5033791;28;20056;-66
2023/10/14 08:25:25;;;;;;;18.23;3.33;;;;;;;12.89;100.00;101097.59;5030464;28;20033;-65
2023/10/14 08:27:51;;;;;;;18.73;3.35;;;;;;;12.80;100.00;101111.75;5036185;28;20064;-65
2023/10/14 08:30:17;;;;;;;18.98;3.25;;;;;;;12.99;100.00;101098.44;5033372;28;20037;-65
2023/10/14 08:32:43;;;;;;;17.58;3.10;;;;;;;13.11;100.00;101105.53;5033487;28;20029;-66
2023/10/14 08:35:17;;;;;;;19.48;3.20;;;;;;;13.26;100.00;101116.09;5032320;28;20033;-66
2023/10/14 08:37:49;;;;;;;15.77;3.20;;;;;;;13.27;100.00;101111.69;5033464;28;20431;-66
2023/10/14 08:40:16;;;;;;;19.38;3.50;;;;;;;13.49;100.00;101096.59;5034524;28;20025;-66
2023/10/14 08:43:07;;;;;;;18.23;3.08;;;;;;;13.65;100.00;101119.56;5032210;28;20029;-67
2023/10/14 08:45:36;;;;;;;16.95;2.78;;;;;;;13.68;100.00;101129.28;5030748;28;20021;-66
2023/10/14 08:48:08;;;;;;;20.20;3.30;;;;;;;13.65;100.00;101129.31;5033428;28;20389;-68
2023/10/14 08:50:35;;;;;;;17.92;3.10;;;;;;;13.78;100.00;101129.25;5033251;28;20041;-65
2023/10/14 08:53:06;;;;;;;18.73;3.30;;;;;;;14.01;100.00;101135.31;5033132;28;20033;-66
2023/10/14 08:55:33;;;;;;;19.27;3.17;;;;;;;14.13;100.00;101140.59;5033134;28;20088;-66
2023/10/14 08:58:07;;;;;;;19.45;2.92;;;;;;;14.09;100.00;101147.69;5033047;28;20050;-65
2023/10/14 09:00:36;;;;;;;19.35;3.10;;;;;;;14.26;100.00;101146.72;5032865;28;20041;-71
2023/10/14 09:03:06;;;;;;;19.90;3.53;;;;;;;14.45;100.00;101152.81;5032657;28;20507;-73
2023/10/14 09:05:44;;;;;;;19.70;3.08;;;;;;;14.53;100.00;101144.75;5033139;28;20026;-73
2023/10/14 09:08:12;;;;;;;19.42;3.35;;;;;;;14.47;100.00;101156.31;5028855;28;20042;-72
2023/10/14 09:10:37;;;;;;;19.58;3.47;;;;;;;14.91;100.00;101154.25;5032850;28;20025;-70
2023/10/14 09:13:05;;;;;;;17.67;3.28;;;;;;;14.72;100.00;101158.84;5028691;28;20035;-71
2023/10/14 09:15:33;;;;;;;17.58;3.20;;;;;;;15.17;100.00;101156.66;5032492;28;20461;-70
2023/10/14 09:17:59;;;;;;;21.55;3.20;;;;;;;14.77;100.00;101162.38;5032866;28;20025;-71
2023/10/14 09:20:38;;;;;;;20.13;3.17;;;;;;;15.19;100.00;101162.88;5032683;28;20056;-72
2023/10/14 09:23:16;;;;;;;18.45;2.90;;;;;;;15.74;100.00;101148.06;5030018;28;20052;-71
2023/10/14 09:25:43;;;;;;;18.45;3.03;;;;;;;15.81;100.00;101157.78;5032795;28;20037;-73
2023/10/14 09:28:09;;;;;;;18.52;3.05;;;;;;;16.03;100.00;101171.72;5032690;28;20025;-70
2023/10/14 09:30:36;;;;;;;18.58;3.00;;;;;;;15.84;100.00;101157.75;5032530;28;20033;-74
2023/10/14 09:33:02;;;;;;;19.25;3.10;;;;;;;15.94;100.00;101160.28;5032681;28;20031;-75
2023/10/14 09:35:30;;;;;;;14.95;2.70;;;;;;;16.30;100.00;101166.03;5032399;28;20029;-73
2023/10/14 09:37:59;;;;;;;16.17;2.80;;;;;;;16.53;100.00;101176.38;5032337;28;20109;-71
2023/10/14 09:40:25;;;;;;;17.50;2.80;;;;;;;16.66;100.00;101182.38;5031921;28;20060;-71
2023/10/14 09:42:52;;;;;;;16.90;2.88;;;;;;;16.97;100.00;101173.94;5041598;28;20033;-70
2023/10/14 09:45:19;;;;;;;16.65;2.90;;;;;;;17.00;100.00;101177.41;5027383;28;20465;-69
2023/10/14 09:47:46;;;;;;;17.27;3.10;;;;;;;17.27;100.00;101179.63;5032330;28;20029;-68
2023/10/14 09:50:15;;;;;;;16.42;2.70;;;;;;;17.35;100.00;101178.56;5032436;28;20037;-69
2023/10/14 09:52:47;;;;;;;17.58;2.80;;;;;;;17.94;100.00;101183.69;5035754;28;20044;-73
2023/10/14 09:55:15;;;;;;;17.27;2.63;;;;;;;18.49;100.00;101185.19;5032324;28;20392;-72
2023/10/14 09:57:47;;;;;;;14.23;2.50;;;;;;;18.81;100.00;101188.00;5028247;28;20493;-71
2023/10/14 10:00:16;;;;;;;16.63;2.70;;;;;;;18.79;98.81;101195.16;5028475;28;20100;-72
2023/10/14 10:02:43;;;;;;;15.63;2.88;;;;;;;19.11;89.09;101190.81;5028251;28;20018;-72
2023/10/14 10:05:15;;;;;;;13.38;2.47;;;;;;;18.90;98.37;101183.34;5030797;28;20084;-67
2023/10/14 10:08:02;;;;;;;17.02;2.92;;;;;;;18.17;90.60;101200.16;5032706;28;20028;-74
2023/10/14 10:10:30;;;;;;;16.00;2.60;;;;;;;18.12;97.90;101208.28;5032692;28;20076;-70
2023/10/14 10:12:57;;;;;;;14.85;2.60;;;;;;;18.26;81.04;101189.25;5032175;28;20032;-73
2023/10/14 10:15:24;;;;;;;17.90;2.80;;;;;;;18.60;84.76;101204.56;5031834;28;20822;-67
2023/10/14 10:18:04;;;;;;;15.70;2.50;;;;;;;18.93;78.72;101199.31;5032309;28;20025;-67
2023/10/14 10:20:35;;;;;;;15.27;2.63;;;;;;;18.72;75.99;101209.63;5029147;28;20357;-69
2023/10/14 10:23:01;;;;;;;13.05;2.40;;;;;;;19.12;67.32;101205.09;5032361;28;20380;-68
2023/10/14 10:25:35;;;;;;;15.07;2.47;;;;;;;18.89;69.17;101208.38;5032083;28;20488;-73
2023/10/14 10:28:25;;;;;;;15.50;2.72;;;;;;;19.31;71.73;101224.28;5029016;28;20025;-66
2023/10/14 10:31:13;;;;;;;14.32;2.38;;;;;;;19.43;61.06;101213.22;5025973;28;20045;-65
2023/10/14 10:33:52;;;;;;;16.63;2.78;;;;;;;19.33;57.74;101211.72;5032082;28;20030;-66
2023/10/14 10:36:32;;;;;;;13.48;2.65;;;;;;;19.49;59.54;101222.91;5028757;28;20112;-67
2023/10/14 10:39:15;;;;;;;15.82;2.58;;;;;;;19.70;57.21;101216.06;5032162;28;20025;-65
2023/10/14 10:41:41;;;;;;;15.18;2.50;;;;;;;19.77;58.28;101222.16;5032110;28;20461;-66
2023/10/14 10:44:09;;;;;;;13.95;2.42;;;;;;;20.43;60.72;101227.41;5032277;28;20029;-66
2023/10/14 10:46:48;;;;;;;16.40;2.63;;;;;;;20.60;58.08;101241.19;5027906;28;20037;-66
2023/10/14 10:49:16;;;;;;;15.30;2.63;;;;;;;19.07;58.38;101226.66;5031650;28;20036;-66
2023/10/14 10:52:08;;;;;;;14.80;2.58;;;;;;;17.45;79.88;101243.44;5035642;28;20030;-66
2023/10/14 10:54:34;;;;;;;14.38;2.75;;;;;;;17.64;78.32;101233.28;5024376;28;20044;-66
2023/10/14 10:57:00;;;;;;;12.98;2.50;;;;;;;18.33;78.68;101240.84;5035406;28;20038;-66
2023/10/14 10:59:27;;;;;;;14.65;2.80;;;;;;;19.25;68.12;101241.41;5034997;28;20556;-66
2023/10/14 11:01:54;;;;;;;16.17;2.70;;;;;;;19.63;68.62;101235.94;5034268;28;20033;-66
2023/10/14 11:04:19;;;;;;;14.98;2.60;;;;;;;19.96;58.30;101234.13;5034768;28;20053;-66
2023/10/14 11:06:45;;;;;;;13.07;2.45;;;;;;;20.62;59.32;101236.66;5035282;28;20492;-66
2023/10/14 11:09:12;;;;;;;15.13;2.40;;;;;;;21.39;57.42;101244.94;5035402;28;20076;-66
2023/10/14 11:11:38;;;;;;;14.82;2.38;;;;;;;21.70;54.87;101245.69;5035233;28;20022;-66
2023/10/14 11:14:17;;;;;;;16.73;2.53;;;;;;;21.64;52.47;101251.25;5035095;28;20037;-66
2023/10/14 11:16:52;;;;;;;14.40;2.30;;;;;;;21.29;51.81;101240.78;5034581;28;20385;-66
2023/10/14 11:19:20;;;;;;;11.30;2.20;;;;;;;21.51;52.08;101238.28;5035225;28;20022;-66
2023/10/14 11:21:46;;;;;;;15.57;2.58;;;;;;;21.60;52.83;101239.75;5035087;28;20060;-65
2023/10/14 11:24:12;;;;;;;13.18;2.42;;;;;;;21.48;52.75;101245.50;5034992;28;20527;-66
2023/10/14 11:26:38;;;;;;;17.67;2.70;;;;;;;21.17;50.42;101250.16;5035325;28;20025;-66
2023/10/14 11:29:04;;;;;;;11.90;2.20;;;;;;;21.69;50.81;101252.00;5034406;28;20025;-66
2023/10/14 11:31:30;;;;;;;14.02;2.58;;;;;;;22.16;51.36;101243.09;5033430;28;20041;-66
2023/10/14 11:34:01;;;;;;;15.07;2.80;;;;;;;21.67;51.00;101235.91;5031104;28;20041;-67
2023/10/14 11:36:27;;;;;;;10.45;2.20;;;;;;;21.35;44.06;101237.88;5034511;28;20084;-67
2023/10/14 11:38:58;;;;;;;14.10;2.38;;;;;;;21.74;45.41;101252.69;5034588;28;20029;-66
2023/10/14 11:41:25;;;;;;;13.85;2.45;;;;;;;21.92;45.97;101241.28;5034371;28;20108;-66
2023/10/14 11:43:51;;;;;;;12.20;2.30;;;;;;;22.52;46.19;101248.91;5034900;28;20503;-66
2023/10/14 11:46:17;;;;;;;13.88;2.60;;;;;;;22.28;49.16;101242.66;5030435;28;20033;-67
2023/10/14 11:48:47;;;;;;;16.17;2.65;;;;;;;21.63;50.30;101255.78;5034727;28;20025;-66
2023/10/14 11:51:19;;;;;;;12.13;2.30;;;;;;;21.83;48.84;101236.25;5034741;28;20060;-66
2023/10/14 11:53:50;;;;;;;14.57;2.40;;;;;;;20.48;52.15;101249.63;5034127;28;20041;-67
2023/10/14 11:56:16;;;;;;;14.55;2.60;;;;;;;19.71;54.91;101260.75;5034247;28;20039;-66